Mancha Real, Spain
Current Conditions -  °F | °C
As of 7:30 AM on Friday 28 Nov 2014 (Local Time) from LEGR Reporting Station
Broken Clouds Broken Clouds  
Wind Chill: 52°   Ceiling: 8000
Heat Index: 52°   Visibility: 6mi
Dew Point: 45°   Wind: 22mph
Humidity: 76%   Direction: 160°SSE
Pressure: 29.09"   Gusts: 35mph
Location:  37.79°N, 3.61°W
Report Text: LEGR 280630Z 16019G30KT 9999 FEW060 BKN080 11/07 Q0985
Loading
Personal Weather Stations






























Interactive Weather Map New forecast layout! Learn more

10-Day Weather Forecast

Advertisements
Track Severe Weather on mobile